sensor_id;sensor_type;location;lat;lon;timestamp;temperature;humidity
2012;DHT22;1009;51.436;6.972;2024-03-25T00:01:50;5.90;99.90
2012;DHT22;1009;51.436;6.972;2024-03-25T00:04:17;5.90;99.90
2012;DHT22;1009;51.436;6.972;2024-03-25T00:06:46;6.00;99.90
2012;DHT22;1009;51.436;6.972;2024-03-25T00:09:12;5.90;99.90
2012;DHT22;1009;51.436;6.972;2024-03-25T00:11:39;5.90;99.90
2012;DHT22;1009;51.436;6.972;2024-03-25T00:14:05;5.90;99.90
2012;DHT22;1009;51.436;6.972;2024-03-25T00:16:32;6.00;99.90
2012;DHT22;1009;51.436;6.972;2024-03-25T00:18:58;5.90;99.90
2012;DHT22;1009;51.436;6.972;2024-03-25T00:21:26;5.80;99.90
2012;DHT22;1009;51.436;6.972;2024-03-25T00:23:52;5.80;99.90
2012;DHT22;1009;51.436;6.972;2024-03-25T00:26:21;5.80;99.90
2012;DHT22;1009;51.436;6.972;2024-03-25T00:28:48;5.90;99.90
2012;DHT22;1009;51.436;6.972;2024-03-25T00:31:14;5.80;99.90
2012;DHT22;1009;51.436;6.972;2024-03-25T00:33:40;5.80;99.90
2012;DHT22;1009;51.436;6.972;2024-03-25T00:36:07;5.80;99.90
2012;DHT22;1009;51.436;6.972;2024-03-25T00:38:34;5.90;99.90
2012;DHT22;1009;51.436;6.972;2024-03-25T00:41:01;5.90;99.90
2012;DHT22;1009;51.436;6.972;2024-03-25T00:43:27;5.80;99.90
2012;DHT22;1009;51.436;6.972;2024-03-25T00:45:53;5.80;99.90
2012;DHT22;1009;51.436;6.972;2024-03-25T00:48:19;5.80;99.90
2012;DHT22;1009;51.436;6.972;2024-03-25T00:50:46;5.70;99.90
2012;DHT22;1009;51.436;6.972;2024-03-25T00:53:12;5.80;99.90
2012;DHT22;1009;51.436;6.972;2024-03-25T00:55:40;5.80;99.90
2012;DHT22;1009;51.436;6.972;2024-03-25T00:58:06;5.70;99.90
2012;DHT22;1009;51.436;6.972;2024-03-25T01:00:33;5.80;99.90
2012;DHT22;1009;51.436;6.972;2024-03-25T01:02:59;5.80;99.90
2012;DHT22;1009;51.436;6.972;2024-03-25T01:05:26;5.80;99.90
2012;DHT22;1009;51.436;6.972;2024-03-25T01:07:51;5.80;99.90
2012;DHT22;1009;51.436;6.972;2024-03-25T01:10:18;5.70;99.90
2012;DHT22;1009;51.436;6.972;2024-03-25T01:12:45;5.70;99.90
2012;DHT22;1009;51.436;6.972;2024-03-25T01:15:12;5.60;99.90
2012;DHT22;1009;51.436;6.972;2024-03-25T01:17:38;5.60;99.90
2012;DHT22;1009;51.436;6.972;2024-03-25T01:20:05;5.50;99.90
2012;DHT22;1009;51.436;6.972;2024-03-25T01:22:31;5.50;99.90
2012;DHT22;1009;51.436;6.972;2024-03-25T01:24:58;5.50;99.90
2012;DHT22;1009;51.436;6.972;2024-03-25T01:27:24;5.50;99.90
2012;DHT22;1009;51.436;6.972;2024-03-25T01:29:52;5.50;99.90
2012;DHT22;1009;51.436;6.972;2024-03-25T01:32:18;5.50;99.90
2012;DHT22;1009;51.436;6.972;2024-03-25T01:34:45;5.50;99.90
2012;DHT22;1009;51.436;6.972;2024-03-25T01:37:11;5.50;99.90
2012;DHT22;1009;51.436;6.972;2024-03-25T01:39:37;5.50;99.90
2012;DHT22;1009;51.436;6.972;2024-03-25T01:42:04;5.60;99.90
2012;DHT22;1009;51.436;6.972;2024-03-25T01:44:31;5.50;99.90
2012;DHT22;1009;51.436;6.972;2024-03-25T01:46:59;5.50;99.90
2012;DHT22;1009;51.436;6.972;2024-03-25T01:49:26;5.50;99.90
2012;DHT22;1009;51.436;6.972;2024-03-25T01:51:52;5.50;99.90
2012;DHT22;1009;51.436;6.972;2024-03-25T01:54:19;5.50;99.90
2012;DHT22;1009;51.436;6.972;2024-03-25T01:56:45;5.40;99.90
2012;DHT22;1009;51.436;6.972;2024-03-25T01:59:12;5.40;99.90
2012;DHT22;1009;51.436;6.972;2024-03-25T02:01:39;5.40;99.90
2012;DHT22;1009;51.436;6.972;2024-03-25T02:04:08;5.40;99.90
2012;DHT22;1009;51.436;6.972;2024-03-25T02:06:35;5.40;99.90
2012;DHT22;1009;51.436;6.972;2024-03-25T02:09:02;5.40;99.90
2012;DHT22;1009;51.436;6.972;2024-03-25T02:11:29;5.30;99.90
2012;DHT22;1009;51.436;6.972;2024-03-25T02:13:56;5.40;99.90
2012;DHT22;1009;51.436;6.972;2024-03-25T02:16:22;5.30;99.90
2012;DHT22;1009;51.436;6.972;2024-03-25T02:18:50;5.30;99.90
2012;DHT22;1009;51.436;6.972;2024-03-25T02:21:18;5.30;99.90
2012;DHT22;1009;51.436;6.972;2024-03-25T02:23:45;5.30;99.90
2012;DHT22;1009;51.436;6.972;2024-03-25T02:26:13;5.20;99.90
2012;DHT22;1009;51.436;6.972;2024-03-25T02:28:40;5.20;99.90
2012;DHT22;1009;51.436;6.972;2024-03-25T02:31:06;5.20;99.90
2012;DHT22;1009;51.436;6.972;2024-03-25T02:33:33;5.20;99.90
2012;DHT22;1009;51.436;6.972;2024-03-25T02:35:58;5.10;99.90
2012;DHT22;1009;51.436;6.972;2024-03-25T02:38:25;5.10;99.90
2012;DHT22;1009;51.436;6.972;2024-03-25T02:40:51;5.10;99.90
2012;DHT22;1009;51.436;6.972;2024-03-25T02:43:19;5.10;99.90
2012;DHT22;1009;51.436;6.972;2024-03-25T02:45:46;5.10;99.90
2012;DHT22;1009;51.436;6.972;2024-03-25T02:48:13;5.10;99.90
2012;DHT22;1009;51.436;6.972;2024-03-25T02:50:39;5.20;99.90
2012;DHT22;1009;51.436;6.972;2024-03-25T02:53:05;5.20;99.90
2012;DHT22;1009;51.436;6.972;2024-03-25T02:55:32;5.20;99.90
2012;DHT22;1009;51.436;6.972;2024-03-25T02:57:58;5.20;99.90
2012;DHT22;1009;51.436;6.972;2024-03-25T03:00:26;5.20;99.90
2012;DHT22;1009;51.436;6.972;2024-03-25T03:02:52;5.10;99.90
2012;DHT22;1009;51.436;6.972;2024-03-25T03:05:18;5.10;99.90
2012;DHT22;1009;51.436;6.972;2024-03-25T03:07:46;5.10;99.90
2012;DHT22;1009;51.436;6.972;2024-03-25T03:10:11;5.00;99.90
2012;DHT22;1009;51.436;6.972;2024-03-25T03:12:38;4.90;99.90
2012;DHT22;1009;51.436;6.972;2024-03-25T03:15:05;4.90;99.90
2012;DHT22;1009;51.436;6.972;2024-03-25T03:17:33;5.00;99.90
2012;DHT22;1009;51.436;6.972;2024-03-25T03:19:59;5.00;99.90
2012;DHT22;1009;51.436;6.972;2024-03-25T03:22:26;5.10;99.90
2012;DHT22;1009;51.436;6.972;2024-03-25T03:24:51;5.10;99.90
2012;DHT22;1009;51.436;6.972;2024-03-25T03:27:18;5.10;99.90
2012;DHT22;1009;51.436;6.972;2024-03-25T03:29:44;5.00;99.90
2012;DHT22;1009;51.436;6.972;2024-03-25T03:32:10;4.90;99.90
2012;DHT22;1009;51.436;6.972;2024-03-25T03:34:38;5.00;99.90
2012;DHT22;1009;51.436;6.972;2024-03-25T03:37:04;5.00;99.90
2012;DHT22;1009;51.436;6.972;2024-03-25T03:39:30;5.00;99.90
2012;DHT22;1009;51.436;6.972;2024-03-25T03:41:57;5.00;99.90
2012;DHT22;1009;51.436;6.972;2024-03-25T03:44:22;5.00;99.90
2012;DHT22;1009;51.436;6.972;2024-03-25T03:46:49;5.00;99.90
2012;DHT22;1009;51.436;6.972;2024-03-25T03:49:15;5.00;99.90
2012;DHT22;1009;51.436;6.972;2024-03-25T03:51:43;5.00;99.90
2012;DHT22;1009;51.436;6.972;2024-03-25T03:54:09;5.00;99.90
2012;DHT22;1009;51.436;6.972;2024-03-25T03:56:35;5.10;99.90
2012;DHT22;1009;51.436;6.972;2024-03-25T03:59:01;5.10;99.90
2012;DHT22;1009;51.436;6.972;2024-03-25T04:01:28;5.10;99.90
2012;DHT22;1009;51.436;6.972;2024-03-25T04:03:54;5.10;99.90
2012;DHT22;1009;51.436;6.972;2024-03-25T04:06:20;5.10;99.90
2012;DHT22;1009;51.436;6.972;2024-03-25T04:08:47;5.10;99.90
2012;DHT22;1009;51.436;6.972;2024-03-25T04:11:14;5.10;99.90
2012;DHT22;1009;51.436;6.972;2024-03-25T04:13:40;5.20;99.90
2012;DHT22;1009;51.436;6.972;2024-03-25T04:16:08;5.20;99.90
2012;DHT22;1009;51.436;6.972;2024-03-25T04:18:35;5.20;99.90
2012;DHT22;1009;51.436;6.972;2024-03-25T04:21:01;5.10;99.90
2012;DHT22;1009;51.436;6.972;2024-03-25T04:23:27;5.00;99.90
2012;DHT22;1009;51.436;6.972;2024-03-25T04:25:55;5.00;99.90
2012;DHT22;1009;51.436;6.972;2024-03-25T04:28:21;5.10;99.90
2012;DHT22;1009;51.436;6.972;2024-03-25T04:30:52;5.20;99.90
2012;DHT22;1009;51.436;6.972;2024-03-25T04:33:18;5.10;99.90
2012;DHT22;1009;51.436;6.972;2024-03-25T04:35:46;5.20;99.90
2012;DHT22;1009;51.436;6.972;2024-03-25T04:38:11;5.20;99.90
2012;DHT22;1009;51.436;6.972;2024-03-25T04:40:37;5.10;99.90
2012;DHT22;1009;51.436;6.972;2024-03-25T04:43:05;5.10;99.90
2012;DHT22;1009;51.436;6.972;2024-03-25T04:45:31;5.10;99.90
2012;DHT22;1009;51.436;6.972;2024-03-25T04:47:56;5.30;99.90
2012;DHT22;1009;51.436;6.972;2024-03-25T04:50:22;5.30;99.90
2012;DHT22;1009;51.436;6.972;2024-03-25T04:52:48;5.20;99.90
2012;DHT22;1009;51.436;6.972;2024-03-25T04:55:14;5.20;99.90
2012;DHT22;1009;51.436;6.972;2024-03-25T04:57:40;5.20;99.90
2012;DHT22;1009;51.436;6.972;2024-03-25T05:00:08;5.20;99.90
2012;DHT22;1009;51.436;6.972;2024-03-25T05:02:36;5.20;99.90
2012;DHT22;1009;51.436;6.972;2024-03-25T05:05:02;5.30;99.90
2012;DHT22;1009;51.436;6.972;2024-03-25T05:07:27;5.30;99.90
2012;DHT22;1009;51.436;6.972;2024-03-25T05:09:53;5.30;99.90
2012;DHT22;1009;51.436;6.972;2024-03-25T05:12:19;5.30;99.90
2012;DHT22;1009;51.436;6.972;2024-03-25T05:14:45;5.30;99.90
2012;DHT22;1009;51.436;6.972;2024-03-25T05:17:12;5.40;99.90
2012;DHT22;1009;51.436;6.972;2024-03-25T05:19:38;5.30;99.90
2012;DHT22;1009;51.436;6.972;2024-03-25T05:22:04;5.30;99.90
2012;DHT22;1009;51.436;6.972;2024-03-25T05:24:29;5.40;99.90
2012;DHT22;1009;51.436;6.972;2024-03-25T05:26:55;5.40;99.90
2012;DHT22;1009;51.436;6.972;2024-03-25T05:29:21;5.30;99.90
2012;DHT22;1009;51.436;6.972;2024-03-25T05:31:56;5.30;99.90
2012;DHT22;1009;51.436;6.972;2024-03-25T05:34:24;5.30;99.90
2012;DHT22;1009;51.436;6.972;2024-03-25T05:36:50;5.30;99.90
2012;DHT22;1009;51.436;6.972;2024-03-25T05:39:16;5.40;99.90
2012;DHT22;1009;51.436;6.972;2024-03-25T05:41:42;5.40;99.90
2012;DHT22;1009;51.436;6.972;2024-03-25T05:44:07;5.40;99.90
2012;DHT22;1009;51.436;6.972;2024-03-25T05:46:33;5.30;99.90
2012;DHT22;1009;51.436;6.972;2024-03-25T05:49:01;5.40;99.90
2012;DHT22;1009;51.436;6.972;2024-03-25T05:51:29;5.40;99.90
2012;DHT22;1009;51.436;6.972;2024-03-25T05:53:55;5.30;99.90
2012;DHT22;1009;51.436;6.972;2024-03-25T05:56:20;5.40;99.90
2012;DHT22;1009;51.436;6.972;2024-03-25T05:58:46;5.30;99.90
2012;DHT22;1009;51.436;6.972;2024-03-25T06:01:12;5.40;99.90
2012;DHT22;1009;51.436;6.972;2024-03-25T06:03:38;5.40;99.90
2012;DHT22;1009;51.436;6.972;2024-03-25T06:06:04;5.40;99.90
2012;DHT22;1009;51.436;6.972;2024-03-25T06:08:31;5.40;99.90
2012;DHT22;1009;51.436;6.972;2024-03-25T06:11:00;5.40;99.90
2012;DHT22;1009;51.436;6.972;2024-03-25T06:13:26;5.40;99.90
2012;DHT22;1009;51.436;6.972;2024-03-25T06:15:52;5.50;99.90
2012;DHT22;1009;51.436;6.972;2024-03-25T06:18:19;5.30;99.90
2012;DHT22;1009;51.436;6.972;2024-03-25T06:20:45;5.30;99.90
2012;DHT22;1009;51.436;6.972;2024-03-25T06:23:11;5.30;99.90
2012;DHT22;1009;51.436;6.972;2024-03-25T06:25:48;5.30;99.90
2012;DHT22;1009;51.436;6.972;2024-03-25T06:28:14;5.40;99.90
2012;DHT22;1009;51.436;6.972;2024-03-25T06:30:40;5.40;99.90
2012;DHT22;1009;51.436;6.972;2024-03-25T06:33:24;5.50;99.90
2012;DHT22;1009;51.436;6.972;2024-03-25T06:36:08;5.60;99.90
2012;DHT22;1009;51.436;6.972;2024-03-25T06:38:34;5.70;99.90
2012;DHT22;1009;51.436;6.972;2024-03-25T06:41:01;5.80;99.90
2012;DHT22;1009;51.436;6.972;2024-03-25T06:43:27;5.90;99.90
2012;DHT22;1009;51.436;6.972;2024-03-25T06:45:53;6.00;99.90
2012;DHT22;1009;51.436;6.972;2024-03-25T06:48:19;6.00;99.90
2012;DHT22;1009;51.436;6.972;2024-03-25T06:50:52;6.10;99.90
2012;DHT22;1009;51.436;6.972;2024-03-25T06:53:18;6.10;99.90
2012;DHT22;1009;51.436;6.972;2024-03-25T06:55:51;6.10;99.90
2012;DHT22;1009;51.436;6.972;2024-03-25T06:58:19;6.20;99.90
2012;DHT22;1009;51.436;6.972;2024-03-25T07:00:45;6.20;99.90
2012;DHT22;1009;51.436;6.972;2024-03-25T07:03:11;6.20;99.90
2012;DHT22;1009;51.436;6.972;2024-03-25T07:05:36;6.10;99.90
2012;DHT22;1009;51.436;6.972;2024-03-25T07:08:03;6.10;99.90
2012;DHT22;1009;51.436;6.972;2024-03-25T07:10:29;6.10;99.90
2012;DHT22;1009;51.436;6.972;2024-03-25T07:12:54;6.20;99.90
2012;DHT22;1009;51.436;6.972;2024-03-25T07:15:22;6.30;99.90
2012;DHT22;1009;51.436;6.972;2024-03-25T07:17:47;6.40;99.90
2012;DHT22;1009;51.436;6.972;2024-03-25T07:20:13;6.40;99.90
2012;DHT22;1009;51.436;6.972;2024-03-25T07:22:39;6.50;99.90
2012;DHT22;1009;51.436;6.972;2024-03-25T07:25:06;6.50;99.90
2012;DHT22;1009;51.436;6.972;2024-03-25T07:27:32;6.70;99.90
2012;DHT22;1009;51.436;6.972;2024-03-25T07:29:58;6.90;99.90
2012;DHT22;1009;51.436;6.972;2024-03-25T07:32:25;6.90;99.90
2012;DHT22;1009;51.436;6.972;2024-03-25T07:34:50;6.90;99.90
2012;DHT22;1009;51.436;6.972;2024-03-25T07:37:16;7.00;99.90
2012;DHT22;1009;51.436;6.972;2024-03-25T07:39:42;7.20;99.90
2012;DHT22;1009;51.436;6.972;2024-03-25T07:42:08;7.30;99.90
2012;DHT22;1009;51.436;6.972;2024-03-25T07:44:34;7.30;99.90
2012;DHT22;1009;51.436;6.972;2024-03-25T07:47:00;7.30;99.90
2012;DHT22;1009;51.436;6.972;2024-03-25T07:49:27;7.20;99.90
2012;DHT22;1009;51.436;6.972;2024-03-25T07:51:53;7.20;99.90
2012;DHT22;1009;51.436;6.972;2024-03-25T07:54:19;7.20;99.90
2012;DHT22;1009;51.436;6.972;2024-03-25T07:56:45;7.40;99.90
2012;DHT22;1009;51.436;6.972;2024-03-25T07:59:11;7.60;99.90
2012;DHT22;1009;51.436;6.972;2024-03-25T08:01:37;7.80;99.90
2012;DHT22;1009;51.436;6.972;2024-03-25T08:04:03;7.80;99.90
2012;DHT22;1009;51.436;6.972;2024-03-25T08:06:30;7.90;99.90
2012;DHT22;1009;51.436;6.972;2024-03-25T08:08:56;7.90;99.90
2012;DHT22;1009;51.436;6.972;2024-03-25T08:11:22;7.90;99.90
2012;DHT22;1009;51.436;6.972;2024-03-25T08:13:48;8.10;99.90
2012;DHT22;1009;51.436;6.972;2024-03-25T08:16:14;8.20;99.90
2012;DHT22;1009;51.436;6.972;2024-03-25T08:18:40;8.20;99.90
2012;DHT22;1009;51.436;6.972;2024-03-25T08:21:05;8.20;99.90
2012;DHT22;1009;51.436;6.972;2024-03-25T08:23:33;8.40;99.90
2012;DHT22;1009;51.436;6.972;2024-03-25T08:25:58;8.40;99.90
2012;DHT22;1009;51.436;6.972;2024-03-25T08:28:24;8.50;99.90
2012;DHT22;1009;51.436;6.972;2024-03-25T08:30:50;8.60;99.90
2012;DHT22;1009;51.436;6.972;2024-03-25T08:33:16;8.60;99.90
2012;DHT22;1009;51.436;6.972;2024-03-25T08:35:42;8.70;99.90
2012;DHT22;1009;51.436;6.972;2024-03-25T08:38:08;8.80;99.90
2012;DHT22;1009;51.436;6.972;2024-03-25T08:40:35;8.80;99.90
2012;DHT22;1009;51.436;6.972;2024-03-25T08:43:01;8.80;99.90
2012;DHT22;1009;51.436;6.972;2024-03-25T08:45:27;9.00;99.90
2012;DHT22;1009;51.436;6.972;2024-03-25T08:47:52;9.20;99.90
2012;DHT22;1009;51.436;6.972;2024-03-25T08:50:18;9.30;99.90
2012;DHT22;1009;51.436;6.972;2024-03-25T08:52:44;9.50;99.90
2012;DHT22;1009;51.436;6.972;2024-03-25T08:55:10;9.50;99.90
2012;DHT22;1009;51.436;6.972;2024-03-25T08:57:37;9.50;99.90
2012;DHT22;1009;51.436;6.972;2024-03-25T09:00:04;9.40;99.90
2012;DHT22;1009;51.436;6.972;2024-03-25T09:02:30;9.30;99.90
2012;DHT22;1009;51.436;6.972;2024-03-25T09:04:56;9.10;99.90
2012;DHT22;1009;51.436;6.972;2024-03-25T09:07:22;9.20;99.90
2012;DHT22;1009;51.436;6.972;2024-03-25T09:09:48;9.40;99.90
2012;DHT22;1009;51.436;6.972;2024-03-25T09:12:33;9.30;99.90
2012;DHT22;1009;51.436;6.972;2024-03-25T09:15:00;9.10;99.90
2012;DHT22;1009;51.436;6.972;2024-03-25T09:17:26;8.90;99.90
2012;DHT22;1009;51.436;6.972;2024-03-25T09:19:52;8.80;99.90
2012;DHT22;1009;51.436;6.972;2024-03-25T09:22:17;9.00;99.90
2012;DHT22;1009;51.436;6.972;2024-03-25T09:24:43;9.20;99.90
2012;DHT22;1009;51.436;6.972;2024-03-25T09:27:09;9.20;99.90
2012;DHT22;1009;51.436;6.972;2024-03-25T09:29:35;9.20;99.90
2012;DHT22;1009;51.436;6.972;2024-03-25T09:32:03;9.10;99.90
2012;DHT22;1009;51.436;6.972;2024-03-25T09:34:29;9.40;99.90
2012;DHT22;1009;51.436;6.972;2024-03-25T09:36:55;9.70;99.90
2012;DHT22;1009;51.436;6.972;2024-03-25T09:39:21;9.90;99.90
2012;DHT22;1009;51.436;6.972;2024-03-25T09:41:48;10.20;99.90
2012;DHT22;1009;51.436;6.972;2024-03-25T09:44:16;10.00;99.90
2012;DHT22;1009;51.436;6.972;2024-03-25T09:46:44;9.80;99.90
2012;DHT22;1009;51.436;6.972;2024-03-25T09:49:11;9.60;99.90
2012;DHT22;1009;51.436;6.972;2024-03-25T09:51:38;9.30;99.90
2012;DHT22;1009;51.436;6.972;2024-03-25T09:54:04;9.30;99.90
2012;DHT22;1009;51.436;6.972;2024-03-25T09:56:31;9.20;99.90
2012;DHT22;1009;51.436;6.972;2024-03-25T09:58:57;9.40;99.90
2012;DHT22;1009;51.436;6.972;2024-03-25T10:01:24;10.00;99.90
2012;DHT22;1009;51.436;6.972;2024-03-25T10:03:49;10.30;99.90
2012;DHT22;1009;51.436;6.972;2024-03-25T10:06:17;10.20;99.90
2012;DHT22;1009;51.436;6.972;2024-03-25T10:08:44;10.00;99.90
2012;DHT22;1009;51.436;6.972;2024-03-25T10:11:10;10.00;99.90
2012;DHT22;1009;51.436;6.972;2024-03-25T10:13:36;10.30;99.90
2012;DHT22;1009;51.436;6.972;2024-03-25T10:16:03;10.70;99.90
2012;DHT22;1009;51.436;6.972;2024-03-25T10:18:29;11.00;99.90
2012;DHT22;1009;51.436;6.972;2024-03-25T10:20:54;11.20;99.90
2012;DHT22;1009;51.436;6.972;2024-03-25T10:23:23;11.20;99.90
2012;DHT22;1009;51.436;6.972;2024-03-25T10:25:51;11.10;99.90
2012;DHT22;1009;51.436;6.972;2024-03-25T10:28:17;11.00;99.90
2012;DHT22;1009;51.436;6.972;2024-03-25T10:30:43;10.90;99.90
2012;DHT22;1009;51.436;6.972;2024-03-25T10:33:08;10.70;99.90
2012;DHT22;1009;51.436;6.972;2024-03-25T10:35:36;10.40;99.90
2012;DHT22;1009;51.436;6.972;2024-03-25T10:38:03;10.20;99.90
2012;DHT22;1009;51.436;6.972;2024-03-25T10:40:32;10.20;99.90
2012;DHT22;1009;51.436;6.972;2024-03-25T10:43:01;10.20;99.90
2012;DHT22;1009;51.436;6.972;2024-03-25T10:45:29;10.30;99.90
2012;DHT22;1009;51.436;6.972;2024-03-25T10:47:57;10.60;99.90
2012;DHT22;1009;51.436;6.972;2024-03-25T10:50:28;11.00;99.90
2012;DHT22;1009;51.436;6.972;2024-03-25T10:52:54;11.40;99.90
2012;DHT22;1009;51.436;6.972;2024-03-25T10:55:21;11.70;99.90
2012;DHT22;1009;51.436;6.972;2024-03-25T10:57:50;11.90;99.90
2012;DHT22;1009;51.436;6.972;2024-03-25T11:00:16;12.10;99.90
2012;DHT22;1009;51.436;6.972;2024-03-25T11:02:43;12.00;99.90
2012;DHT22;1009;51.436;6.972;2024-03-25T11:05:09;12.00;99.90
2012;DHT22;1009;51.436;6.972;2024-03-25T11:07:36;12.10;99.90
2012;DHT22;1009;51.436;6.972;2024-03-25T11:10:03;12.30;99.90
2012;DHT22;1009;51.436;6.972;2024-03-25T11:12:40;12.40;99.90
2012;DHT22;1009;51.436;6.972;2024-03-25T11:15:08;12.10;99.90
2012;DHT22;1009;51.436;6.972;2024-03-25T11:17:34;12.10;99.90
2012;DHT22;1009;51.436;6.972;2024-03-25T11:20:08;12.10;99.90
2012;DHT22;1009;51.436;6.972;2024-03-25T11:22:35;12.00;99.90
2012;DHT22;1009;51.436;6.972;2024-03-25T11:25:08;12.00;99.90
2012;DHT22;1009;51.436;6.972;2024-03-25T11:27:37;12.10;99.90
2012;DHT22;1009;51.436;6.972;2024-03-25T11:30:03;12.40;99.90
2012;DHT22;1009;51.436;6.972;2024-03-25T11:32:49;12.10;99.90
2012;DHT22;1009;51.436;6.972;2024-03-25T11:35:16;12.30;99.90
2012;DHT22;1009;51.436;6.972;2024-03-25T11:37:42;12.00;99.90
2012;DHT22;1009;51.436;6.972;2024-03-25T11:40:09;12.10;99.90
2012;DHT22;1009;51.436;6.972;2024-03-25T11:42:37;12.30;99.90
2012;DHT22;1009;51.436;6.972;2024-03-25T11:45:04;12.40;99.90
2012;DHT22;1009;51.436;6.972;2024-03-25T11:47:31;12.70;99.90
2012;DHT22;1009;51.436;6.972;2024-03-25T11:49:57;12.70;99.90
2012;DHT22;1009;51.436;6.972;2024-03-25T11:52:23;12.90;99.90
2012;DHT22;1009;51.436;6.972;2024-03-25T11:54:55;13.20;99.90
2012;DHT22;1009;51.436;6.972;2024-03-25T11:57:21;13.40;99.90
2012;DHT22;1009;51.436;6.972;2024-03-25T11:59:47;13.20;99.90
2012;DHT22;1009;51.436;6.972;2024-03-25T12:02:15;13.00;99.90
2012;DHT22;1009;51.436;6.972;2024-03-25T12:04:43;12.90;99.90
2012;DHT22;1009;51.436;6.972;2024-03-25T12:07:11;12.70;99.90
2012;DHT22;1009;51.436;6.972;2024-03-25T12:09:37;12.60;99.90
2012;DHT22;1009;51.436;6.972;2024-03-25T12:12:21;12.40;99.90
2012;DHT22;1009;51.436;6.972;2024-03-25T12:14:48;12.60;99.90
2012;DHT22;1009;51.436;6.972;2024-03-25T12:17:14;12.70;99.90
2012;DHT22;1009;51.436;6.972;2024-03-25T12:19:40;12.90;99.90
2012;DHT22;1009;51.436;6.972;2024-03-25T12:22:08;13.10;99.90
2012;DHT22;1009;51.436;6.972;2024-03-25T12:24:33;13.40;99.90
2012;DHT22;1009;51.436;6.972;2024-03-25T12:26:59;13.50;99.90
2012;DHT22;1009;51.436;6.972;2024-03-25T12:29:25;13.60;99.90
2012;DHT22;1009;51.436;6.972;2024-03-25T12:31:55;13.60;99.90
2012;DHT22;1009;51.436;6.972;2024-03-25T12:34:20;13.70;99.90
2012;DHT22;1009;51.436;6.972;2024-03-25T12:36:46;14.00;99.90
2012;DHT22;1009;51.436;6.972;2024-03-25T12:39:17;14.20;99.90
2012;DHT22;1009;51.436;6.972;2024-03-25T12:41:43;14.50;99.90
2012;DHT22;1009;51.436;6.972;2024-03-25T12:44:09;14.70;98.60
2012;DHT22;1009;51.436;6.972;2024-03-25T12:46:35;14.80;99.60
2012;DHT22;1009;51.436;6.972;2024-03-25T12:49:01;14.40;99.30
2012;DHT22;1009;51.436;6.972;2024-03-25T12:51:27;14.50;99.40
2012;DHT22;1009;51.436;6.972;2024-03-25T12:53:53;14.60;97.20
2012;DHT22;1009;51.436;6.972;2024-03-25T12:56:20;14.70;97.30
2012;DHT22;1009;51.436;6.972;2024-03-25T12:58:46;14.80;96.00
2012;DHT22;1009;51.436;6.972;2024-03-25T13:01:12;14.80;95.80
2012;DHT22;1009;51.436;6.972;2024-03-25T13:03:37;14.80;94.80
2012;DHT22;1009;51.436;6.972;2024-03-25T13:06:04;14.60;96.20
2012;DHT22;1009;51.436;6.972;2024-03-25T13:08:29;14.30;94.10
2012;DHT22;1009;51.436;6.972;2024-03-25T13:10:55;13.70;92.60
2012;DHT22;1009;51.436;6.972;2024-03-25T13:13:23;12.80;93.70
2012;DHT22;1009;51.436;6.972;2024-03-25T13:15:49;12.70;95.10
2012;DHT22;1009;51.436;6.972;2024-03-25T13:18:14;12.50;93.40
2012;DHT22;1009;51.436;6.972;2024-03-25T13:20:40;12.60;95.90
2012;DHT22;1009;51.436;6.972;2024-03-25T13:23:06;13.20;96.70
2012;DHT22;1009;51.436;6.972;2024-03-25T13:25:32;13.80;96.00
2012;DHT22;1009;51.436;6.972;2024-03-25T13:27:58;14.20;92.80
2012;DHT22;1009;51.436;6.972;2024-03-25T13:30:25;14.30;91.30
2012;DHT22;1009;51.436;6.972;2024-03-25T13:32:51;14.50;92.20
2012;DHT22;1009;51.436;6.972;2024-03-25T13:35:17;14.60;91.10
2012;DHT22;1009;51.436;6.972;2024-03-25T13:37:43;14.60;90.90
2012;DHT22;1009;51.436;6.972;2024-03-25T13:40:10;14.60;87.20
2012;DHT22;1009;51.436;6.972;2024-03-25T13:42:36;14.70;89.10
2012;DHT22;1009;51.436;6.972;2024-03-25T13:45:02;14.90;89.40
2012;DHT22;1009;51.436;6.972;2024-03-25T13:47:30;14.90;84.10
2012;DHT22;1009;51.436;6.972;2024-03-25T13:50:02;14.90;85.50
2012;DHT22;1009;51.436;6.972;2024-03-25T13:52:28;14.80;88.80
2012;DHT22;1009;51.436;6.972;2024-03-25T13:54:54;15.10;84.30
2012;DHT22;1009;51.436;6.972;2024-03-25T13:57:20;15.20;80.60
2012;DHT22;1009;51.436;6.972;2024-03-25T13:59:45;15.30;84.00
2012;DHT22;1009;51.436;6.972;2024-03-25T14:02:11;15.50;82.90
2012;DHT22;1009;51.436;6.972;2024-03-25T14:04:39;15.60;84.50
2012;DHT22;1009;51.436;6.972;2024-03-25T14:07:05;15.40;80.30
2012;DHT22;1009;51.436;6.972;2024-03-25T14:09:30;15.50;82.90
2012;DHT22;1009;51.436;6.972;2024-03-25T14:11:56;15.80;86.30
2012;DHT22;1009;51.436;6.972;2024-03-25T14:14:22;16.00;82.70
2012;DHT22;1009;51.436;6.972;2024-03-25T14:16:48;15.90;78.80
2012;DHT22;1009;51.436;6.972;2024-03-25T14:19:14;16.20;81.70
2012;DHT22;1009;51.436;6.972;2024-03-25T14:21:41;16.30;78.70
2012;DHT22;1009;51.436;6.972;2024-03-25T14:24:07;16.50;83.10
2012;DHT22;1009;51.436;6.972;2024-03-25T14:26:33;16.80;80.40
2012;DHT22;1009;51.436;6.972;2024-03-25T14:28:59;16.80;82.10
2012;DHT22;1009;51.436;6.972;2024-03-25T14:31:25;16.80;77.90
2012;DHT22;1009;51.436;6.972;2024-03-25T14:33:51;16.60;75.00
2012;DHT22;1009;51.436;6.972;2024-03-25T14:36:17;16.30;75.20
2012;DHT22;1009;51.436;6.972;2024-03-25T14:38:44;15.80;77.20
2012;DHT22;1009;51.436;6.972;2024-03-25T14:41:11;15.80;79.70
2012;DHT22;1009;51.436;6.972;2024-03-25T14:43:37;16.00;80.70
2012;DHT22;1009;51.436;6.972;2024-03-25T14:46:03;16.10;83.20
2012;DHT22;1009;51.436;6.972;2024-03-25T14:48:29;16.10;78.50
2012;DHT22;1009;51.436;6.972;2024-03-25T14:50:55;15.80;76.10
2012;DHT22;1009;51.436;6.972;2024-03-25T14:53:21;15.60;76.20
2012;DHT22;1009;51.436;6.972;2024-03-25T14:55:48;15.60;80.70
2012;DHT22;1009;51.436;6.972;2024-03-25T14:58:14;15.50;81.60
2012;DHT22;1009;51.436;6.972;2024-03-25T15:00:40;15.60;83.00
2012;DHT22;1009;51.436;6.972;2024-03-25T15:03:06;15.70;82.90
2012;DHT22;1009;51.436;6.972;2024-03-25T15:05:31;15.70;81.40
2012;DHT22;1009;51.436;6.972;2024-03-25T15:07:57;15.90;84.40
2012;DHT22;1009;51.436;6.972;2024-03-25T15:10:23;15.80;92.80
2012;DHT22;1009;51.436;6.972;2024-03-25T15:12:50;15.50;90.30
2012;DHT22;1009;51.436;6.972;2024-03-25T15:15:16;14.70;89.00
2012;DHT22;1009;51.436;6.972;2024-03-25T15:17:42;14.60;91.20
2012;DHT22;1009;51.436;6.972;2024-03-25T15:20:09;14.50;87.20
2012;DHT22;1009;51.436;6.972;2024-03-25T15:22:34;14.30;90.50
2012;DHT22;1009;51.436;6.972;2024-03-25T15:25:00;14.40;89.80
2012;DHT22;1009;51.436;6.972;2024-03-25T15:27:27;14.30;91.80
2012;DHT22;1009;51.436;6.972;2024-03-25T15:29:54;14.50;91.60
2012;DHT22;1009;51.436;6.972;2024-03-25T15:32:20;14.30;87.70
2012;DHT22;1009;51.436;6.972;2024-03-25T15:34:45;14.50;89.30
2012;DHT22;1009;51.436;6.972;2024-03-25T15:37:11;14.60;85.50
2012;DHT22;1009;51.436;6.972;2024-03-25T15:39:37;14.60;86.00
2012;DHT22;1009;51.436;6.972;2024-03-25T15:42:03;14.60;84.20
2012;DHT22;1009;51.436;6.972;2024-03-25T15:44:29;14.90;89.00
2012;DHT22;1009;51.436;6.972;2024-03-25T15:46:56;15.00;86.40
2012;DHT22;1009;51.436;6.972;2024-03-25T15:49:22;14.90;86.10
2012;DHT22;1009;51.436;6.972;2024-03-25T15:51:48;14.90;90.20
2012;DHT22;1009;51.436;6.972;2024-03-25T15:54:14;14.70;84.30
2012;DHT22;1009;51.436;6.972;2024-03-25T15:56:41;14.50;83.20
2012;DHT22;1009;51.436;6.972;2024-03-25T15:59:07;14.50;86.90
2012;DHT22;1009;51.436;6.972;2024-03-25T16:01:33;14.30;89.00
2012;DHT22;1009;51.436;6.972;2024-03-25T16:04:00;14.20;89.90
2012;DHT22;1009;51.436;6.972;2024-03-25T16:06:26;14.20;88.00
2012;DHT22;1009;51.436;6.972;2024-03-25T16:08:52;14.00;84.60